PWSweather.com
Personal Weather Stations
Station Observations
K4FB1
Clubhouse Heritage, Lakeland, FL 33812

Clubhouse HeritageLakeland, FL 33812

Lat: 27.969224, Lon: -81.897769

Elevation: 145

Station Type: Davis Vantage Pro2

http://www.ClubhouseWX.com

High Low Average
Temperature 90.1°F32.3°C 53.3°F11.8°C 71.5°F21.9°C
Dew Point 65.6°F18.7°C -42.3°F-41.3°C 16.5°F-8.6°C
Winds 6.0 mph 9.7 kmh Calm Calm 2.0 mph SE3.2 kmh SE
Wind Gusts 15.0 mph24.1 kmh -- 6.0 mph9.7 kmh
Humidity 68% 0% 28%
Pressure 30.25 in1024.4 mb 30.15 in1021.0 mb -
Precipitation 0.00 in0.0 mm - -
Hour Temp Dew Point Humidity Winds Wind Gusts Pressure Precip Precip Rate Daily Precip Total
12:00 AM 61.7°F16.5°C 33.7°F0.9°C 35% Calm Calm 1.0 mph1.6 kmh 30.20 in1022.7 mb 0.00 in0.0 mm 0.00 in0.0 mm 0.00 in0.0 mm
12:05 AM 61.5°F16.4°C 32.1°F0.1°C 33% Calm Calm 1.0 mph1.6 kmh 30.20 in1022.7 mb 0.00 in0.0 mm 0.00 in0.0 mm 0.00 in0.0 mm
12:10 AM 61.4°F16.3°C 32.0°F0.0°C 33% Calm Calm 1.0 mph1.6 kmh 30.20 in1022.7 mb 0.00 in0.0 mm 0.00 in0.0 mm 0.00 in0.0 mm
12:15 AM 61.3°F16.3°C 28.7°F-1.8°C 29% Calm Calm 1.0 mph1.6 kmh 30.20 in1022.7 mb 0.00 in0.0 mm 0.00 in0.0 mm 0.00 in0.0 mm
12:20 AM 61.1°F16.2°C 26.8°F-2.9°C 27% Calm Calm 1.0 mph1.6 kmh 30.20 in1022.7 mb 0.00 in0.0 mm 0.00 in0.0 mm 0.00 in0.0 mm
12:25 AM 60.9°F16.1°C 22.8°F-5.1°C 23% Calm Calm 2.0 mph3.2 kmh 30.20 in1022.7 mb 0.00 in0.0 mm 0.00 in0.0 mm 0.00 in0.0 mm
12:30 AM 60.8°F16.0°C 19.4°F-7.0°C 20% Calm Calm 2.0 mph3.2 kmh 30.20 in1022.7 mb 0.00 in0.0 mm 0.00 in0.0 mm 0.00 in0.0 mm
12:35 AM 60.6°F15.9°C 16.8°F-8.4°C 18% Calm Calm 1.0 mph1.6 kmh 30.20 in1022.7 mb 0.00 in0.0 mm 0.00 in0.0 mm 0.00 in0.0 mm
12:40 AM 60.5°F15.8°C 15.4°F-9.2°C 17% Calm Calm 1.0 mph1.6 kmh 30.20 in1022.7 mb 0.00 in0.0 mm 0.00 in0.0 mm 0.00 in0.0 mm
12:45 AM 60.3°F15.7°C 12.4°F-10.9°C 15% Calm Calm 1.0 mph1.6 kmh 30.20 in1022.7 mb 0.00 in0.0 mm 0.00 in0.0 mm 0.00 in0.0 mm
12:50 AM 60.2°F15.7°C 7.3°F-13.7°C 12% Calm Calm 1.0 mph1.6 kmh 30.20 in1022.7 mb 0.00 in0.0 mm 0.00 in0.0 mm 0.00 in0.0 mm
12:55 AM 60.0°F15.6°C 5.2°F-14.9°C 11% Calm Calm 1.0 mph1.6 kmh 30.19 in1022.4 mb 0.00 in0.0 mm 0.00 in0.0 mm 0.00 in0.0 mm
01:00 AM 59.7°F15.4°C 6.9°F-13.9°C 12% Calm Calm -- 30.19 in1022.4 mb 0.00 in0.0 mm 0.00 in0.0 mm 0.00 in0.0 mm
01:05 AM 59.5°F15.3°C 8.5°F-13.1°C 13% Calm Calm 1.0 mph1.6 kmh 30.19 in1022.4 mb 0.00 in0.0 mm 0.00 in0.0 mm 0.00 in0.0 mm
01:10 AM 59.3°F15.2°C 6.6°F-14.1°C 12% Calm Calm 1.0 mph1.6 kmh 30.19 in1022.4 mb 0.00 in0.0 mm 0.00 in0.0 mm 0.00 in0.0 mm
01:15 AM 59.1°F15.1°C 2.5°F-16.4°C 10% Calm Calm 1.0 mph1.6 kmh 30.19 in1022.4 mb 0.00 in0.0 mm 0.00 in0.0 mm 0.00 in0.0 mm
01:20 AM 59.1°F15.1°C -8.3°F-22.4°C 6% Calm Calm 1.0 mph1.6 kmh 30.19 in1022.4 mb 0.00 in0.0 mm 0.00 in0.0 mm 0.00 in0.0 mm
01:25 AM 58.9°F14.9°C -8.4°F-22.4°C 6% Calm Calm 1.0 mph1.6 kmh 30.19 in1022.4 mb 0.00 in0.0 mm 0.00 in0.0 mm 0.00 in0.0 mm
01:30 AM 58.7°F14.8°C -12.3°F-24.6°C 5% Calm Calm 1.0 mph1.6 kmh 30.19 in1022.4 mb 0.00 in0.0 mm 0.00 in0.0 mm 0.00 in0.0 mm
01:35 AM 58.5°F14.7°C -12.4°F-24.7°C 5% Calm Calm 1.0 mph1.6 kmh 30.18 in1022.0 mb 0.00 in0.0 mm 0.00 in0.0 mm 0.00 in0.0 mm
01:40 AM 58.4°F14.7°C -42.3°F-41.3°C 1% Calm Calm -- 30.18 in1022.0 mb 0.00 in0.0 mm 0.00 in0.0 mm 0.00 in0.0 mm
01:45 AM 58.3°F14.6°C -42.3°F-41.3°C 1% Calm Calm 1.0 mph1.6 kmh 30.19 in1022.4 mb 0.00 in0.0 mm 0.00 in0.0 mm 0.00 in0.0 mm
01:50 AM 58.4°F14.7°C -42.3°F-41.3°C 0% 1.0 mph NW1.6 kmh NW 1.0 mph1.6 kmh 30.18 in1022.0 mb 0.00 in0.0 mm 0.00 in0.0 mm 0.00 in0.0 mm
01:55 AM 58.5°F14.7°C -42.3°F-41.3°C 0% 1.0 mph NW1.6 kmh NW 1.0 mph1.6 kmh 30.18 in1022.0 mb 0.00 in0.0 mm 0.00 in0.0 mm 0.00 in0.0 mm
02:00 AM 58.4°F14.7°C -42.3°F-41.3°C 0% Calm Calm 1.0 mph1.6 kmh 30.18 in1022.0 mb 0.00 in0.0 mm 0.00 in0.0 mm 0.00 in0.0 mm
02:05 AM 58.2°F14.6°C -42.3°F-41.3°C 0% Calm Calm 1.0 mph1.6 kmh 30.18 in1022.0 mb 0.00 in0.0 mm 0.00 in0.0 mm 0.00 in0.0 mm
02:10 AM 58.0°F14.4°C -42.3°F-41.3°C 0% Calm Calm 1.0 mph1.6 kmh 30.18 in1022.0 mb 0.00 in0.0 mm 0.00 in0.0 mm 0.00 in0.0 mm
02:15 AM 58.1°F14.5°C -42.3°F-41.3°C 0% Calm Calm 1.0 mph1.6 kmh 30.18 in1022.0 mb 0.00 in0.0 mm 0.00 in0.0 mm 0.00 in0.0 mm
02:20 AM 58.0°F14.4°C -42.3°F-41.3°C 0% Calm Calm 1.0 mph1.6 kmh 30.18 in1022.0 mb 0.00 in0.0 mm 0.00 in0.0 mm 0.00 in0.0 mm
02:25 AM 57.9°F14.4°C -42.3°F-41.3°C 0% Calm Calm 1.0 mph1.6 kmh 30.18 in1022.0 mb 0.00 in0.0 mm 0.00 in0.0 mm 0.00 in0.0 mm
02:30 AM 57.8°F14.3°C -42.3°F-41.3°C 0% Calm Calm 1.0 mph1.6 kmh 30.18 in1022.0 mb 0.00 in0.0 mm 0.00 in0.0 mm 0.00 in0.0 mm
02:35 AM 57.7°F14.3°C -42.3°F-41.3°C 0% Calm Calm 1.0 mph1.6 kmh 30.18 in1022.0 mb 0.00 in0.0 mm 0.00 in0.0 mm 0.00 in0.0 mm
02:40 AM 57.6°F14.2°C -42.3°F-41.3°C 0% Calm Calm 1.0 mph1.6 kmh 30.18 in1022.0 mb 0.00 in0.0 mm 0.00 in0.0 mm 0.00 in0.0 mm
02:45 AM 57.4°F14.1°C -42.3°F-41.3°C 0% Calm Calm 1.0 mph1.6 kmh 30.18 in1022.0 mb 0.00 in0.0 mm 0.00 in0.0 mm 0.00 in0.0 mm
02:50 AM 57.4°F14.1°C -42.3°F-41.3°C 0% Calm Calm -- 30.18 in1022.0 mb 0.00 in0.0 mm 0.00 in0.0 mm 0.00 in0.0 mm
02:55 AM 57.3°F14.1°C -42.3°F-41.3°C 0% Calm Calm 1.0 mph1.6 kmh 30.18 in1022.0 mb 0.00 in0.0 mm 0.00 in0.0 mm 0.00 in0.0 mm
03:00 AM 57.2°F14.0°C -42.3°F-41.3°C 0% Calm Calm 1.0 mph1.6 kmh 30.18 in1022.0 mb 0.00 in0.0 mm 0.00 in0.0 mm 0.00 in0.0 mm
03:05 AM 57.2°F14.0°C -42.3°F-41.3°C 0% Calm Calm 1.0 mph1.6 kmh 30.18 in1022.0 mb 0.00 in0.0 mm 0.00 in0.0 mm 0.00 in0.0 mm
03:10 AM 57.1°F13.9°C -42.3°F-41.3°C 0% Calm Calm 1.0 mph1.6 kmh 30.18 in1022.0 mb 0.00 in0.0 mm 0.00 in0.0 mm 0.00 in0.0 mm
03:15 AM 57.0°F13.9°C -42.3°F-41.3°C 0% Calm Calm 1.0 mph1.6 kmh 30.17 in1021.7 mb 0.00 in0.0 mm 0.00 in0.0 mm 0.00 in0.0 mm
03:20 AM 56.9°F13.8°C -42.3°F-41.3°C 0% Calm Calm 1.0 mph1.6 kmh 30.18 in1022.0 mb 0.00 in0.0 mm 0.00 in0.0 mm 0.00 in0.0 mm
03:25 AM 56.8°F13.8°C -42.3°F-41.3°C 0% 1.0 mph NW1.6 kmh NW 2.0 mph3.2 kmh 30.18 in1022.0 mb 0.00 in0.0 mm 0.00 in0.0 mm 0.00 in0.0 mm
03:30 AM 56.9°F13.8°C -42.3°F-41.3°C 0% 1.0 mph NW1.6 kmh NW 2.0 mph3.2 kmh 30.18 in1022.0 mb 0.00 in0.0 mm 0.00 in0.0 mm 0.00 in0.0 mm
03:35 AM 56.8°F13.8°C -42.3°F-41.3°C 0% 1.0 mph NW1.6 kmh NW 2.0 mph3.2 kmh 30.18 in1022.0 mb 0.00 in0.0 mm 0.00 in0.0 mm 0.00 in0.0 mm
03:40 AM 56.7°F13.7°C -42.3°F-41.3°C 0% 1.0 mph NW1.6 kmh NW 1.0 mph1.6 kmh 30.18 in1022.0 mb 0.00 in0.0 mm 0.00 in0.0 mm 0.00 in0.0 mm
03:45 AM 56.7°F13.7°C -42.3°F-41.3°C 0% 1.0 mph NW1.6 kmh NW 1.0 mph1.6 kmh 30.18 in1022.0 mb 0.00 in0.0 mm 0.00 in0.0 mm 0.00 in0.0 mm
03:50 AM 56.7°F13.7°C -42.3°F-41.3°C 0% 1.0 mph NW1.6 kmh NW 1.0 mph1.6 kmh 30.18 in1022.0 mb 0.00 in0.0 mm 0.00 in0.0 mm 0.00 in0.0 mm
03:55 AM 56.5°F13.6°C -42.3°F-41.3°C 0% Calm Calm 1.0 mph1.6 kmh 30.18 in1022.0 mb 0.00 in0.0 mm 0.00 in0.0 mm 0.00 in0.0 mm
04:00 AM 56.4°F13.6°C -42.3°F-41.3°C 0% Calm Calm 2.0 mph3.2 kmh 30.18 in1022.0 mb 0.00 in0.0 mm 0.00 in0.0 mm 0.00 in0.0 mm
04:05 AM 56.4°F13.6°C -42.3°F-41.3°C 0% 1.0 mph NW1.6 kmh NW 2.0 mph3.2 kmh 30.18 in1022.0 mb 0.00 in0.0 mm 0.00 in0.0 mm 0.00 in0.0 mm
04:10 AM 56.4°F13.6°C -42.3°F-41.3°C 0% 1.0 mph NW1.6 kmh NW 2.0 mph3.2 kmh 30.18 in1022.0 mb 0.00 in0.0 mm 0.00 in0.0 mm 0.00 in0.0 mm
04:15 AM 56.4°F13.6°C -42.3°F-41.3°C 0% 1.0 mph NW1.6 kmh NW 2.0 mph3.2 kmh 30.18 in1022.0 mb 0.00 in0.0 mm 0.00 in0.0 mm 0.00 in0.0 mm
04:20 AM 56.3°F13.5°C -42.3°F-41.3°C 0% 1.0 mph NW1.6 kmh NW 2.0 mph3.2 kmh 30.18 in1022.0 mb 0.00 in0.0 mm 0.00 in0.0 mm 0.00 in0.0 mm
04:25 AM 56.3°F13.5°C -42.3°F-41.3°C 0% 1.0 mph NW1.6 kmh NW 2.0 mph3.2 kmh 30.18 in1022.0 mb 0.00 in0.0 mm 0.00 in0.0 mm 0.00 in0.0 mm
04:30 AM 56.3°F13.5°C -42.3°F-41.3°C 0% 1.0 mph NW1.6 kmh NW 2.0 mph3.2 kmh 30.18 in1022.0 mb 0.00 in0.0 mm 0.00 in0.0 mm 0.00 in0.0 mm
04:35 AM 56.2°F13.4°C -42.3°F-41.3°C 0% 1.0 mph NW1.6 kmh NW 2.0 mph3.2 kmh 30.18 in1022.0 mb 0.00 in0.0 mm 0.00 in0.0 mm 0.00 in0.0 mm
04:40 AM 56.1°F13.4°C -42.3°F-41.3°C 0% 1.0 mph NW1.6 kmh NW 2.0 mph3.2 kmh 30.18 in1022.0 mb 0.00 in0.0 mm 0.00 in0.0 mm 0.00 in0.0 mm
04:45 AM 56.1°F13.4°C -42.3°F-41.3°C 0% 1.0 mph NW1.6 kmh NW 2.0 mph3.2 kmh 30.18 in1022.0 mb 0.00 in0.0 mm 0.00 in0.0 mm 0.00 in0.0 mm
04:50 AM 56.1°F13.4°C -42.3°F-41.3°C 0% 1.0 mph NW1.6 kmh NW 3.0 mph4.8 kmh 30.18 in1022.0 mb 0.00 in0.0 mm 0.00 in0.0 mm 0.00 in0.0 mm
04:55 AM 56.2°F13.4°C -42.3°F-41.3°C 0% 1.0 mph NW1.6 kmh NW 3.0 mph4.8 kmh 30.18 in1022.0 mb 0.00 in0.0 mm 0.00 in0.0 mm 0.00 in0.0 mm
05:00 AM 56.1°F13.4°C -42.3°F-41.3°C 0% 1.0 mph NW1.6 kmh NW 2.0 mph3.2 kmh 30.18 in1022.0 mb 0.00 in0.0 mm 0.00 in0.0 mm 0.00 in0.0 mm
05:05 AM 56.2°F13.4°C -42.3°F-41.3°C 0% 1.0 mph NW1.6 kmh NW 2.0 mph3.2 kmh 30.18 in1022.0 mb 0.00 in0.0 mm 0.00 in0.0 mm 0.00 in0.0 mm
05:10 AM 56.2°F13.4°C -42.3°F-41.3°C 0% 1.0 mph NW1.6 kmh NW 2.0 mph3.2 kmh 30.18 in1022.0 mb 0.00 in0.0 mm 0.00 in0.0 mm 0.00 in0.0 mm
05:15 AM 56.2°F13.4°C -42.3°F-41.3°C 0% 1.0 mph NW1.6 kmh NW 2.0 mph3.2 kmh 30.18 in1022.0 mb 0.00 in0.0 mm 0.00 in0.0 mm 0.00 in0.0 mm
05:20 AM 56.1°F13.4°C -42.3°F-41.3°C 0% Calm Calm 2.0 mph3.2 kmh 30.18 in1022.0 mb 0.00 in0.0 mm 0.00 in0.0 mm 0.00 in0.0 mm
05:25 AM 56.0°F13.3°C -42.3°F-41.3°C 0% Calm Calm 1.0 mph1.6 kmh 30.17 in1021.7 mb 0.00 in0.0 mm 0.00 in0.0 mm 0.00 in0.0 mm
05:30 AM 56.0°F13.3°C -42.3°F-41.3°C 0% 1.0 mph NW1.6 kmh NW 2.0 mph3.2 kmh 30.17 in1021.7 mb 0.00 in0.0 mm 0.00 in0.0 mm 0.00 in0.0 mm
05:35 AM 55.8°F13.2°C -42.3°F-41.3°C 0% 1.0 mph NW1.6 kmh NW 2.0 mph3.2 kmh 30.17 in1021.7 mb 0.00 in0.0 mm 0.00 in0.0 mm 0.00 in0.0 mm
05:40 AM 55.7°F13.2°C -42.3°F-41.3°C 0% 1.0 mph NW1.6 kmh NW 2.0 mph3.2 kmh 30.18 in1022.0 mb 0.00 in0.0 mm 0.00 in0.0 mm 0.00 in0.0 mm
05:45 AM 55.8°F13.2°C -42.3°F-41.3°C 0% 1.0 mph W1.6 kmh W 3.0 mph4.8 kmh 30.17 in1021.7 mb 0.00 in0.0 mm 0.00 in0.0 mm 0.00 in0.0 mm
05:50 AM 56.0°F13.3°C -42.3°F-41.3°C 0% 2.0 mph SSW3.2 kmh SSW 3.0 mph4.8 kmh 30.17 in1021.7 mb 0.00 in0.0 mm 0.00 in0.0 mm 0.00 in0.0 mm
05:55 AM 56.3°F13.5°C -42.3°F-41.3°C 0% 2.0 mph SSE3.2 kmh SSE 3.0 mph4.8 kmh 30.17 in1021.7 mb 0.00 in0.0 mm 0.00 in0.0 mm 0.00 in0.0 mm
06:00 AM 56.6°F13.7°C -42.3°F-41.3°C 0% 2.0 mph SE3.2 kmh SE 3.0 mph4.8 kmh 30.18 in1022.0 mb 0.00 in0.0 mm 0.00 in0.0 mm 0.00 in0.0 mm
06:05 AM 56.8°F13.8°C -42.3°F-41.3°C 0% 2.0 mph SE3.2 kmh SE 2.0 mph3.2 kmh 30.18 in1022.0 mb 0.00 in0.0 mm 0.00 in0.0 mm 0.00 in0.0 mm
06:10 AM 56.9°F13.8°C -42.3°F-41.3°C 0% 2.0 mph SE3.2 kmh SE 2.0 mph3.2 kmh 30.18 in1022.0 mb 0.00 in0.0 mm 0.00 in0.0 mm 0.00 in0.0 mm
06:15 AM 56.9°F13.8°C -42.3°F-41.3°C 0% 1.0 mph SE1.6 kmh SE 2.0 mph3.2 kmh 30.18 in1022.0 mb 0.00 in0.0 mm 0.00 in0.0 mm 0.00 in0.0 mm
06:20 AM 56.7°F13.7°C -42.3°F-41.3°C 0% Calm Calm 2.0 mph3.2 kmh 30.18 in1022.0 mb 0.00 in0.0 mm 0.00 in0.0 mm 0.00 in0.0 mm
06:25 AM 56.3°F13.5°C -42.3°F-41.3°C 0% Calm Calm -- 30.18 in1022.0 mb 0.00 in0.0 mm 0.00 in0.0 mm 0.00 in0.0 mm
06:30 AM 56.0°F13.3°C -42.3°F-41.3°C 0% Calm Calm 1.0 mph1.6 kmh 30.18 in1022.0 mb 0.00 in0.0 mm 0.00 in0.0 mm 0.00 in0.0 mm
06:35 AM 55.8°F13.2°C -42.3°F-41.3°C 0% Calm Calm 1.0 mph1.6 kmh 30.18 in1022.0 mb 0.00 in0.0 mm 0.00 in0.0 mm 0.00 in0.0 mm
06:40 AM 55.5°F13.1°C -42.3°F-41.3°C 0% Calm Calm 2.0 mph3.2 kmh 30.18 in1022.0 mb 0.00 in0.0 mm 0.00 in0.0 mm 0.00 in0.0 mm
06:45 AM 55.3°F12.9°C -42.3°F-41.3°C 0% 1.0 mph SE1.6 kmh SE 2.0 mph3.2 kmh 30.18 in1022.0 mb 0.00 in0.0 mm 0.00 in0.0 mm 0.00 in0.0 mm
06:50 AM 55.1°F12.8°C -42.3°F-41.3°C 0% 1.0 mph SE1.6 kmh SE 2.0 mph3.2 kmh 30.19 in1022.4 mb 0.00 in0.0 mm 0.00 in0.0 mm 0.00 in0.0 mm
06:55 AM 55.0°F12.8°C -42.3°F-41.3°C 0% Calm Calm 1.0 mph1.6 kmh 30.18 in1022.0 mb 0.00 in0.0 mm 0.00 in0.0 mm 0.00 in0.0 mm
07:00 AM 55.1°F12.8°C -42.3°F-41.3°C 0% Calm Calm 2.0 mph3.2 kmh 30.19 in1022.4 mb 0.00 in0.0 mm 0.00 in0.0 mm 0.00 in0.0 mm
07:05 AM 55.2°F12.9°C -42.3°F-41.3°C 0% 1.0 mph S1.6 kmh S 2.0 mph3.2 kmh 30.19 in1022.4 mb 0.00 in0.0 mm 0.00 in0.0 mm 0.00 in0.0 mm
07:10 AM 55.2°F12.9°C -42.3°F-41.3°C 0% Calm Calm 1.0 mph1.6 kmh 30.19 in1022.4 mb 0.00 in0.0 mm 0.00 in0.0 mm 0.00 in0.0 mm
07:15 AM 55.1°F12.8°C -42.3°F-41.3°C 0% Calm Calm 1.0 mph1.6 kmh 30.19 in1022.4 mb 0.00 in0.0 mm 0.00 in0.0 mm 0.00 in0.0 mm
07:20 AM 55.0°F12.8°C -42.3°F-41.3°C 0% Calm Calm -- 30.19 in1022.4 mb 0.00 in0.0 mm 0.00 in0.0 mm 0.00 in0.0 mm
07:25 AM 54.9°F12.7°C -42.3°F-41.3°C 0% Calm Calm -- 30.19 in1022.4 mb 0.00 in0.0 mm 0.00 in0.0 mm 0.00 in0.0 mm
07:30 AM 54.7°F12.6°C -42.3°F-41.3°C 0% Calm Calm 1.0 mph1.6 kmh 30.19 in1022.4 mb 0.00 in0.0 mm 0.00 in0.0 mm 0.00 in0.0 mm
07:35 AM 54.5°F12.5°C -42.3°F-41.3°C 0% Calm Calm 1.0 mph1.6 kmh 30.19 in1022.4 mb 0.00 in0.0 mm 0.00 in0.0 mm 0.00 in0.0 mm
07:40 AM 54.3°F12.4°C -42.3°F-41.3°C 0% 1.0 mph S1.6 kmh S 1.0 mph1.6 kmh 30.19 in1022.4 mb 0.00 in0.0 mm 0.00 in0.0 mm 0.00 in0.0 mm
07:45 AM 54.2°F12.3°C -42.3°F-41.3°C 0% 1.0 mph S1.6 kmh S 1.0 mph1.6 kmh 30.19 in1022.4 mb 0.00 in0.0 mm 0.00 in0.0 mm 0.00 in0.0 mm
07:50 AM 54.0°F12.2°C -42.3°F-41.3°C 0% Calm Calm 1.0 mph1.6 kmh 30.20 in1022.7 mb 0.00 in0.0 mm 0.00 in0.0 mm 0.00 in0.0 mm
07:55 AM 53.9°F12.2°C -42.3°F-41.3°C 0% Calm Calm -- 30.20 in1022.7 mb 0.00 in0.0 mm 0.00 in0.0 mm 0.00 in0.0 mm
08:00 AM 53.8°F12.1°C -42.3°F-41.3°C 0% Calm Calm -- 30.20 in1022.7 mb 0.00 in0.0 mm 0.00 in0.0 mm 0.00 in0.0 mm
08:05 AM 53.6°F12.0°C -42.3°F-41.3°C 0% Calm Calm 2.0 mph3.2 kmh 30.20 in1022.7 mb 0.00 in0.0 mm 0.00 in0.0 mm 0.00 in0.0 mm
08:10 AM 53.5°F11.9°C -42.3°F-41.3°C 0% Calm Calm 2.0 mph3.2 kmh 30.21 in1023.0 mb 0.00 in0.0 mm 0.00 in0.0 mm 0.00 in0.0 mm
08:15 AM 53.3°F11.8°C -42.3°F-41.3°C 0% Calm Calm 2.0 mph3.2 kmh 30.21 in1023.0 mb 0.00 in0.0 mm 0.00 in0.0 mm 0.00 in0.0 mm
08:20 AM 53.3°F11.8°C -42.3°F-41.3°C 0% Calm Calm 1.0 mph1.6 kmh 30.21 in1023.0 mb 0.00 in0.0 mm 0.00 in0.0 mm 0.00 in0.0 mm
08:25 AM 53.3°F11.8°C -42.3°F-41.3°C 0% Calm Calm 1.0 mph1.6 kmh 30.21 in1023.0 mb 0.00 in0.0 mm 0.00 in0.0 mm 0.00 in0.0 mm
08:30 AM 53.6°F12.0°C -42.3°F-41.3°C 0% Calm Calm 1.0 mph1.6 kmh 30.21 in1023.0 mb 0.00 in0.0 mm 0.00 in0.0 mm 0.00 in0.0 mm
08:35 AM 53.9°F12.2°C -42.3°F-41.3°C 0% Calm Calm 1.0 mph1.6 kmh 30.21 in1023.0 mb 0.00 in0.0 mm 0.00 in0.0 mm 0.00 in0.0 mm
08:40 AM 54.1°F12.3°C -42.3°F-41.3°C 0% Calm Calm 1.0 mph1.6 kmh 30.21 in1023.0 mb 0.00 in0.0 mm 0.00 in0.0 mm 0.00 in0.0 mm
08:45 AM 54.3°F12.4°C -42.3°F-41.3°C 0% Calm Calm 1.0 mph1.6 kmh 30.22 in1023.4 mb 0.00 in0.0 mm 0.00 in0.0 mm 0.00 in0.0 mm
08:50 AM 54.6°F12.6°C -42.3°F-41.3°C 0% Calm Calm 1.0 mph1.6 kmh 30.22 in1023.4 mb 0.00 in0.0 mm 0.00 in0.0 mm 0.00 in0.0 mm
08:55 AM 55.6°F13.1°C -42.3°F-41.3°C 0% 1.0 mph S1.6 kmh S 2.0 mph3.2 kmh 30.21 in1023.0 mb 0.00 in0.0 mm 0.00 in0.0 mm 0.00 in0.0 mm
09:00 AM 56.8°F13.8°C -42.3°F-41.3°C 0% 2.0 mph S3.2 kmh S 3.0 mph4.8 kmh 30.21 in1023.0 mb 0.00 in0.0 mm 0.00 in0.0 mm 0.00 in0.0 mm
09:05 AM 58.0°F14.4°C -42.3°F-41.3°C 0% 2.0 mph S3.2 kmh S 3.0 mph4.8 kmh 30.21 in1023.0 mb 0.00 in0.0 mm 0.00 in0.0 mm 0.00 in0.0 mm
09:10 AM 59.2°F15.1°C -42.3°F-41.3°C 0% 2.0 mph SSE3.2 kmh SSE 4.0 mph6.4 kmh 30.21 in1023.0 mb 0.00 in0.0 mm 0.00 in0.0 mm 0.00 in0.0 mm
09:15 AM 60.4°F15.8°C -42.3°F-41.3°C 0% 2.0 mph SSE3.2 kmh SSE 4.0 mph6.4 kmh 30.21 in1023.0 mb 0.00 in0.0 mm 0.00 in0.0 mm 0.00 in0.0 mm
09:20 AM 61.4°F16.3°C -42.3°F-41.3°C 0% 3.0 mph SSE4.8 kmh SSE 4.0 mph6.4 kmh 30.21 in1023.0 mb 0.00 in0.0 mm 0.00 in0.0 mm 0.00 in0.0 mm
09:25 AM 62.0°F16.7°C -42.3°F-41.3°C 0% 3.0 mph SSE4.8 kmh SSE 4.0 mph6.4 kmh 30.21 in1023.0 mb 0.00 in0.0 mm 0.00 in0.0 mm 0.00 in0.0 mm
09:30 AM 62.6°F17.0°C -42.3°F-41.3°C 0% 2.0 mph SSE3.2 kmh SSE 4.0 mph6.4 kmh 30.21 in1023.0 mb 0.00 in0.0 mm 0.00 in0.0 mm 0.00 in0.0 mm
09:35 AM 63.2°F17.3°C -42.3°F-41.3°C 0% 2.0 mph S3.2 kmh S 4.0 mph6.4 kmh 30.22 in1023.4 mb 0.00 in0.0 mm 0.00 in0.0 mm 0.00 in0.0 mm
09:40 AM 63.8°F17.7°C -42.3°F-41.3°C 0% 2.0 mph S3.2 kmh S 4.0 mph6.4 kmh 30.22 in1023.4 mb 0.00 in0.0 mm 0.00 in0.0 mm 0.00 in0.0 mm
09:45 AM 64.6°F18.1°C -42.3°F-41.3°C 0% 2.0 mph SSE3.2 kmh SSE 5.0 mph8.0 kmh 30.22 in1023.4 mb 0.00 in0.0 mm 0.00 in0.0 mm 0.00 in0.0 mm
09:50 AM 65.5°F18.6°C -42.3°F-41.3°C 0% 3.0 mph SE4.8 kmh SE 5.0 mph8.0 kmh 30.22 in1023.4 mb 0.00 in0.0 mm 0.00 in0.0 mm 0.00 in0.0 mm
09:55 AM 66.4°F19.1°C -42.3°F-41.3°C 0% 3.0 mph SSE4.8 kmh SSE 6.0 mph9.7 kmh 30.22 in1023.4 mb 0.00 in0.0 mm 0.00 in0.0 mm 0.00 in0.0 mm
10:00 AM 67.6°F19.8°C -42.3°F-41.3°C 0% 4.0 mph SSE6.4 kmh SSE 6.0 mph9.7 kmh 30.22 in1023.4 mb 0.00 in0.0 mm 0.00 in0.0 mm 0.00 in0.0 mm
10:05 AM 68.6°F20.3°C 33.3°F0.7°C 27% 4.0 mph SSE6.4 kmh SSE 8.0 mph12.9 kmh 30.22 in1023.4 mb 0.00 in0.0 mm 0.00 in0.0 mm 0.00 in0.0 mm
10:10 AM 69.6°F20.9°C 49.6°F9.8°C 49% 5.0 mph SSE8.0 kmh SSE 9.0 mph14.5 kmh 30.22 in1023.4 mb 0.00 in0.0 mm 0.00 in0.0 mm 0.00 in0.0 mm
10:15 AM 70.4°F21.3°C 54.4°F12.4°C 57% 4.0 mph SE6.4 kmh SE 9.0 mph14.5 kmh 30.22 in1023.4 mb 0.00 in0.0 mm 0.00 in0.0 mm 0.00 in0.0 mm
10:20 AM 71.0°F21.7°C 57.3°F14.1°C 62% 5.0 mph SE8.0 kmh SE 9.0 mph14.5 kmh 30.23 in1023.7 mb 0.00 in0.0 mm 0.00 in0.0 mm 0.00 in0.0 mm
10:25 AM 71.6°F22.0°C 58.8°F14.9°C 64% 5.0 mph SE8.0 kmh SE 8.0 mph12.9 kmh 30.23 in1023.7 mb 0.00 in0.0 mm 0.00 in0.0 mm 0.00 in0.0 mm
10:30 AM 72.2°F22.3°C 59.8°F15.4°C 65% 4.0 mph SE6.4 kmh SE 8.0 mph12.9 kmh 30.23 in1023.7 mb 0.00 in0.0 mm 0.00 in0.0 mm 0.00 in0.0 mm
10:35 AM 72.7°F22.6°C 60.7°F15.9°C 66% 4.0 mph SSE6.4 kmh SSE 8.0 mph12.9 kmh 30.23 in1023.7 mb 0.00 in0.0 mm 0.00 in0.0 mm 0.00 in0.0 mm
10:40 AM 73.3°F22.9°C 61.3°F16.3°C 66% 4.0 mph S6.4 kmh S 6.0 mph9.7 kmh 30.23 in1023.7 mb 0.00 in0.0 mm 0.00 in0.0 mm 0.00 in0.0 mm
10:45 AM 74.0°F23.3°C 62.3°F16.8°C 67% 3.0 mph SSE4.8 kmh SSE 7.0 mph11.3 kmh 30.24 in1024.0 mb 0.00 in0.0 mm 0.00 in0.0 mm 0.00 in0.0 mm
10:50 AM 74.6°F23.7°C 62.5°F16.9°C 66% 3.0 mph SSE4.8 kmh SSE 7.0 mph11.3 kmh 30.24 in1024.0 mb 0.00 in0.0 mm 0.00 in0.0 mm 0.00 in0.0 mm
10:55 AM 75.3°F24.1°C 63.2°F17.3°C 66% 3.0 mph SSE4.8 kmh SSE 6.0 mph9.7 kmh 30.24 in1024.0 mb 0.00 in0.0 mm 0.00 in0.0 mm 0.00 in0.0 mm
11:00 AM 75.9°F24.4°C 63.7°F17.6°C 66% 3.0 mph SSE4.8 kmh SSE 6.0 mph9.7 kmh 30.24 in1024.0 mb 0.00 in0.0 mm 0.00 in0.0 mm 0.00 in0.0 mm
11:05 AM 76.3°F24.6°C 64.1°F17.8°C 66% 3.0 mph S4.8 kmh S 6.0 mph9.7 kmh 30.24 in1024.0 mb 0.00 in0.0 mm 0.00 in0.0 mm 0.00 in0.0 mm
11:10 AM 76.5°F24.7°C 64.3°F17.9°C 66% 2.0 mph S3.2 kmh S 6.0 mph9.7 kmh 30.24 in1024.0 mb 0.00 in0.0 mm 0.00 in0.0 mm 0.00 in0.0 mm
11:15 AM 77.0°F25.0°C 64.3°F17.9°C 65% 2.0 mph SSW3.2 kmh SSW 7.0 mph11.3 kmh 30.24 in1024.0 mb 0.00 in0.0 mm 0.00 in0.0 mm 0.00 in0.0 mm
11:20 AM 77.6°F25.3°C 64.0°F17.8°C 63% 4.0 mph S6.4 kmh S 8.0 mph12.9 kmh 30.24 in1024.0 mb 0.00 in0.0 mm 0.00 in0.0 mm 0.00 in0.0 mm
11:25 AM 78.0°F25.6°C 64.4°F18.0°C 63% 5.0 mph SSE8.0 kmh SSE 9.0 mph14.5 kmh 30.24 in1024.0 mb 0.00 in0.0 mm 0.00 in0.0 mm 0.00 in0.0 mm
11:30 AM 78.3°F25.7°C 64.2°F17.9°C 62% 5.0 mph SSE8.0 kmh SSE 10.0 mph16.1 kmh 30.24 in1024.0 mb 0.00 in0.0 mm 0.00 in0.0 mm 0.00 in0.0 mm
11:35 AM 78.7°F25.9°C 64.1°F17.8°C 61% 5.0 mph SSE8.0 kmh SSE 10.0 mph16.1 kmh 30.24 in1024.0 mb 0.00 in0.0 mm 0.00 in0.0 mm 0.00 in0.0 mm
11:40 AM 79.2°F26.2°C 64.6°F18.1°C 61% 5.0 mph SSE8.0 kmh SSE 9.0 mph14.5 kmh 30.24 in1024.0 mb 0.00 in0.0 mm 0.00 in0.0 mm 0.00 in0.0 mm
11:45 AM 79.7°F26.5°C 64.6°F18.1°C 60% 4.0 mph SSE6.4 kmh SSE 9.0 mph14.5 kmh 30.24 in1024.0 mb 0.00 in0.0 mm 0.00 in0.0 mm 0.00 in0.0 mm
11:50 AM 80.2°F26.8°C 65.1°F18.4°C 60% 4.0 mph SE6.4 kmh SE 8.0 mph12.9 kmh 30.24 in1024.0 mb 0.00 in0.0 mm 0.00 in0.0 mm 0.00 in0.0 mm
11:55 AM 80.5°F26.9°C 64.9°F18.3°C 59% 3.0 mph SSE4.8 kmh SSE 7.0 mph11.3 kmh 30.24 in1024.0 mb 0.00 in0.0 mm 0.00 in0.0 mm 0.00 in0.0 mm
12:00 PM 80.7°F27.1°C 65.0°F18.3°C 59% 3.0 mph S4.8 kmh S 7.0 mph11.3 kmh 30.24 in1024.0 mb 0.00 in0.0 mm 0.00 in0.0 mm 0.00 in0.0 mm
12:05 PM 81.1°F27.3°C 64.9°F18.3°C 58% 2.0 mph S3.2 kmh S 7.0 mph11.3 kmh 30.24 in1024.0 mb 0.00 in0.0 mm 0.00 in0.0 mm 0.00 in0.0 mm
12:10 PM 81.6°F27.6°C 65.4°F18.6°C 58% 2.0 mph S3.2 kmh S 7.0 mph11.3 kmh 30.24 in1024.0 mb 0.00 in0.0 mm 0.00 in0.0 mm 0.00 in0.0 mm
12:15 PM 82.0°F27.8°C 65.3°F18.5°C 57% 2.0 mph S3.2 kmh S 7.0 mph11.3 kmh 30.24 in1024.0 mb 0.00 in0.0 mm 0.00 in0.0 mm 0.00 in0.0 mm
12:20 PM 82.0°F27.8°C 64.8°F18.2°C 56% 2.0 mph SSW3.2 kmh SSW 6.0 mph9.7 kmh 30.24 in1024.0 mb 0.00 in0.0 mm 0.00 in0.0 mm 0.00 in0.0 mm
12:25 PM 82.2°F27.9°C 64.9°F18.3°C 56% 2.0 mph SW3.2 kmh SW 6.0 mph9.7 kmh 30.23 in1023.7 mb 0.00 in0.0 mm 0.00 in0.0 mm 0.00 in0.0 mm
12:30 PM 82.4°F28.0°C 65.6°F18.7°C 57% 2.0 mph SW3.2 kmh SW 6.0 mph9.7 kmh 30.24 in1024.0 mb 0.00 in0.0 mm 0.00 in0.0 mm 0.00 in0.0 mm
12:35 PM 82.6°F28.1°C 64.3°F17.9°C 54% 2.0 mph SW3.2 kmh SW 6.0 mph9.7 kmh 30.23 in1023.7 mb 0.00 in0.0 mm 0.00 in0.0 mm 0.00 in0.0 mm
12:40 PM 82.8°F28.2°C 65.0°F18.3°C 55% 2.0 mph WSW3.2 kmh WSW 5.0 mph8.0 kmh 30.23 in1023.7 mb 0.00 in0.0 mm 0.00 in0.0 mm 0.00 in0.0 mm
12:45 PM 83.0°F28.3°C 65.2°F18.4°C 55% 2.0 mph NNE3.2 kmh NNE 5.0 mph8.0 kmh 30.23 in1023.7 mb 0.00 in0.0 mm 0.00 in0.0 mm 0.00 in0.0 mm
12:50 PM 83.1°F28.4°C 65.3°F18.5°C 55% 3.0 mph NNE4.8 kmh NNE 6.0 mph9.7 kmh 30.23 in1023.7 mb 0.00 in0.0 mm 0.00 in0.0 mm 0.00 in0.0 mm
12:55 PM 83.1°F28.4°C 65.3°F18.5°C 55% 3.0 mph N4.8 kmh N 6.0 mph9.7 kmh 30.22 in1023.4 mb 0.00 in0.0 mm 0.00 in0.0 mm 0.00 in0.0 mm
01:00 PM 82.8°F28.2°C 64.5°F18.1°C 54% 2.0 mph N3.2 kmh N 5.0 mph8.0 kmh 30.22 in1023.4 mb 0.00 in0.0 mm 0.00 in0.0 mm 0.00 in0.0 mm
01:05 PM 82.9°F28.3°C 64.5°F18.1°C 54% 2.0 mph W3.2 kmh W 4.0 mph6.4 kmh 30.22 in1023.4 mb 0.00 in0.0 mm 0.00 in0.0 mm 0.00 in0.0 mm
01:10 PM 83.4°F28.6°C 63.9°F17.7°C 52% 2.0 mph WNW3.2 kmh WNW 7.0 mph11.3 kmh 30.22 in1023.4 mb 0.00 in0.0 mm 0.00 in0.0 mm 0.00 in0.0 mm
01:15 PM 83.8°F28.8°C 63.7°F17.6°C 51% 4.0 mph WSW6.4 kmh WSW 8.0 mph12.9 kmh 30.22 in1023.4 mb 0.00 in0.0 mm 0.00 in0.0 mm 0.00 in0.0 mm
01:20 PM 83.8°F28.8°C 63.2°F17.3°C 50% 3.0 mph SW4.8 kmh SW 8.0 mph12.9 kmh 30.21 in1023.0 mb 0.00 in0.0 mm 0.00 in0.0 mm 0.00 in0.0 mm
01:25 PM 84.1°F28.9°C 65.1°F18.4°C 53% 3.0 mph WSW4.8 kmh WSW 6.0 mph9.7 kmh 30.21 in1023.0 mb 0.00 in0.0 mm 0.00 in0.0 mm 0.00 in0.0 mm
01:30 PM 84.5°F29.2°C 63.8°F17.7°C 50% 2.0 mph SSE3.2 kmh SSE 6.0 mph9.7 kmh 30.20 in1022.7 mb 0.00 in0.0 mm 0.00 in0.0 mm 0.00 in0.0 mm
01:35 PM 84.7°F29.3°C 63.4°F17.4°C 49% 2.0 mph SW3.2 kmh SW 8.0 mph12.9 kmh 30.20 in1022.7 mb 0.00 in0.0 mm 0.00 in0.0 mm 0.00 in0.0 mm
01:40 PM 85.1°F29.5°C 63.8°F17.7°C 49% 4.0 mph S6.4 kmh S 8.0 mph12.9 kmh 30.20 in1022.7 mb 0.00 in0.0 mm 0.00 in0.0 mm 0.00 in0.0 mm
01:45 PM 85.5°F29.7°C 64.2°F17.9°C 49% 3.0 mph SE4.8 kmh SE 8.0 mph12.9 kmh 30.20 in1022.7 mb 0.00 in0.0 mm 0.00 in0.0 mm 0.00 in0.0 mm
01:50 PM 85.6°F29.8°C 61.8°F16.6°C 45% 3.0 mph SE4.8 kmh SE 7.0 mph11.3 kmh 30.19 in1022.4 mb 0.00 in0.0 mm 0.00 in0.0 mm 0.00 in0.0 mm
01:55 PM 85.7°F29.8°C 61.9°F16.6°C 45% 3.0 mph SE4.8 kmh SE 7.0 mph11.3 kmh 30.19 in1022.4 mb 0.00 in0.0 mm 0.00 in0.0 mm 0.00 in0.0 mm
02:00 PM 85.8°F29.9°C 62.6°F17.0°C 46% 2.0 mph E3.2 kmh E 5.0 mph8.0 kmh 30.19 in1022.4 mb 0.00 in0.0 mm 0.00 in0.0 mm 0.00 in0.0 mm
02:05 PM 86.1°F30.1°C 62.3°F16.8°C 45% 3.0 mph SE4.8 kmh SE 10.0 mph16.1 kmh 30.19 in1022.4 mb 0.00 in0.0 mm 0.00 in0.0 mm 0.00 in0.0 mm
02:10 PM 86.2°F30.1°C 62.4°F16.9°C 45% 3.0 mph SE4.8 kmh SE 10.0 mph16.1 kmh 30.18 in1022.0 mb 0.00 in0.0 mm 0.00 in0.0 mm 0.00 in0.0 mm
02:15 PM 86.3°F30.2°C 61.8°F16.6°C 44% 4.0 mph SSE6.4 kmh SSE 7.0 mph11.3 kmh 30.18 in1022.0 mb 0.00 in0.0 mm 0.00 in0.0 mm 0.00 in0.0 mm
02:20 PM 86.3°F30.2°C 61.8°F16.6°C 44% 3.0 mph S4.8 kmh S 6.0 mph9.7 kmh 30.18 in1022.0 mb 0.00 in0.0 mm 0.00 in0.0 mm 0.00 in0.0 mm
02:25 PM 86.3°F30.2°C 61.8°F16.6°C 44% 3.0 mph SSW4.8 kmh SSW 6.0 mph9.7 kmh 30.18 in1022.0 mb 0.00 in0.0 mm 0.00 in0.0 mm 0.00 in0.0 mm
02:30 PM 86.3°F30.2°C 61.8°F16.6°C 44% 3.0 mph SSW4.8 kmh SSW 7.0 mph11.3 kmh 30.18 in1022.0 mb 0.00 in0.0 mm 0.00 in0.0 mm 0.00 in0.0 mm
02:35 PM 86.0°F30.0°C 62.2°F16.8°C 45% 3.0 mph S4.8 kmh S 7.0 mph11.3 kmh 30.18 in1022.0 mb 0.00 in0.0 mm 0.00 in0.0 mm 0.00 in0.0 mm
02:40 PM 86.2°F30.1°C 61.7°F16.5°C 44% 2.0 mph SSW3.2 kmh SSW 4.0 mph6.4 kmh 30.18 in1022.0 mb 0.00 in0.0 mm 0.00 in0.0 mm 0.00 in0.0 mm
02:45 PM 86.4°F30.2°C 61.3°F16.3°C 43% 3.0 mph SW4.8 kmh SW 7.0 mph11.3 kmh 30.18 in1022.0 mb 0.00 in0.0 mm 0.00 in0.0 mm 0.00 in0.0 mm
02:50 PM 86.2°F30.1°C 61.7°F16.5°C 44% 3.0 mph WSW4.8 kmh WSW 7.0 mph11.3 kmh 30.17 in1021.7 mb 0.00 in0.0 mm 0.00 in0.0 mm 0.00 in0.0 mm
02:55 PM 86.4°F30.2°C 61.9°F16.6°C 44% 2.0 mph NW3.2 kmh NW 5.0 mph8.0 kmh 30.17 in1021.7 mb 0.00 in0.0 mm 0.00 in0.0 mm 0.00 in0.0 mm
03:00 PM 86.7°F30.4°C 63.4°F17.4°C 46% 2.0 mph NW3.2 kmh NW 6.0 mph9.7 kmh 30.17 in1021.7 mb 0.00 in0.0 mm 0.00 in0.0 mm 0.00 in0.0 mm
03:05 PM 86.7°F30.4°C 62.2°F16.8°C 44% 3.0 mph WSW4.8 kmh WSW 8.0 mph12.9 kmh 30.17 in1021.7 mb 0.00 in0.0 mm 0.00 in0.0 mm 0.00 in0.0 mm
03:10 PM 86.8°F30.4°C 61.6°F16.4°C 43% 4.0 mph WSW6.4 kmh WSW 8.0 mph12.9 kmh 30.16 in1021.3 mb 0.00 in0.0 mm 0.00 in0.0 mm 0.00 in0.0 mm
03:15 PM 87.3°F30.7°C 62.1°F16.7°C 43% 3.0 mph WSW4.8 kmh WSW 7.0 mph11.3 kmh 30.16 in1021.3 mb 0.00 in0.0 mm 0.00 in0.0 mm 0.00 in0.0 mm
03:20 PM 87.6°F30.9°C 61.0°F16.1°C 41% 3.0 mph SSW4.8 kmh SSW 8.0 mph12.9 kmh 30.16 in1021.3 mb 0.00 in0.0 mm 0.00 in0.0 mm 0.00 in0.0 mm
03:25 PM 87.8°F31.0°C 61.2°F16.2°C 41% 3.0 mph S4.8 kmh S 8.0 mph12.9 kmh 30.16 in1021.3 mb 0.00 in0.0 mm 0.00 in0.0 mm 0.00 in0.0 mm
03:30 PM 88.1°F31.2°C 62.1°F16.7°C 42% 2.0 mph S3.2 kmh S 7.0 mph11.3 kmh 30.16 in1021.3 mb 0.00 in0.0 mm 0.00 in0.0 mm 0.00 in0.0 mm
03:35 PM 88.4°F31.3°C 62.4°F16.9°C 42% 3.0 mph SSE4.8 kmh SSE 7.0 mph11.3 kmh 30.16 in1021.3 mb 0.00 in0.0 mm 0.00 in0.0 mm 0.00 in0.0 mm
03:40 PM 88.2°F31.2°C 62.2°F16.8°C 42% 4.0 mph SE6.4 kmh SE 10.0 mph16.1 kmh 30.16 in1021.3 mb 0.00 in0.0 mm 0.00 in0.0 mm 0.00 in0.0 mm
03:45 PM 88.3°F31.3°C 62.3°F16.8°C 42% 3.0 mph SSE4.8 kmh SSE 10.0 mph16.1 kmh 30.16 in1021.3 mb 0.00 in0.0 mm 0.00 in0.0 mm 0.00 in0.0 mm
03:50 PM 88.5°F31.4°C 62.5°F16.9°C 42% 3.0 mph SE4.8 kmh SE 6.0 mph9.7 kmh 30.16 in1021.3 mb 0.00 in0.0 mm 0.00 in0.0 mm 0.00 in0.0 mm
03:55 PM 88.5°F31.4°C 60.4°F15.8°C 39% 3.0 mph E4.8 kmh E 7.0 mph11.3 kmh 30.15 in1021.0 mb 0.00 in0.0 mm 0.00 in0.0 mm 0.00 in0.0 mm
04:00 PM 88.3°F31.3°C 61.6°F16.4°C 41% 2.0 mph ESE3.2 kmh ESE 7.0 mph11.3 kmh 30.15 in1021.0 mb 0.00 in0.0 mm 0.00 in0.0 mm 0.00 in0.0 mm
04:05 PM 88.7°F31.5°C 62.0°F16.7°C 41% 2.0 mph SSE3.2 kmh SSE 5.0 mph8.0 kmh 30.16 in1021.3 mb 0.00 in0.0 mm 0.00 in0.0 mm 0.00 in0.0 mm
04:10 PM 89.0°F31.7°C 62.2°F16.8°C 41% 2.0 mph SE3.2 kmh SE 8.0 mph12.9 kmh 30.15 in1021.0 mb 0.00 in0.0 mm 0.00 in0.0 mm 0.00 in0.0 mm
04:15 PM 89.3°F31.8°C 62.5°F16.9°C 41% 3.0 mph SSE4.8 kmh SSE 8.0 mph12.9 kmh 30.15 in1021.0 mb 0.00 in0.0 mm 0.00 in0.0 mm 0.00 in0.0 mm
04:20 PM 89.5°F31.9°C 62.0°F16.7°C 40% 3.0 mph S4.8 kmh S 7.0 mph11.3 kmh 30.15 in1021.0 mb 0.00 in0.0 mm 0.00 in0.0 mm 0.00 in0.0 mm
04:25 PM 89.7°F32.1°C 61.5°F16.4°C 39% 3.0 mph S4.8 kmh S 6.0 mph9.7 kmh 30.15 in1021.0 mb 0.00 in0.0 mm 0.00 in0.0 mm 0.00 in0.0 mm
04:30 PM 90.0°F32.2°C 61.7°F16.5°C 39% 2.0 mph S3.2 kmh S 5.0 mph8.0 kmh 30.15 in1021.0 mb 0.00 in0.0 mm 0.00 in0.0 mm 0.00 in0.0 mm
04:35 PM 90.0°F32.2°C 61.7°F16.5°C 39% 3.0 mph SE4.8 kmh SE 8.0 mph12.9 kmh 30.15 in1021.0 mb 0.00 in0.0 mm 0.00 in0.0 mm 0.00 in0.0 mm
04:40 PM 90.1°F32.3°C 61.1°F16.2°C 38% 4.0 mph SE6.4 kmh SE 8.0 mph12.9 kmh 30.15 in1021.0 mb 0.00 in0.0 mm 0.00 in0.0 mm 0.00 in0.0 mm
04:45 PM 89.9°F32.2°C 60.9°F16.1°C 38% 4.0 mph E6.4 kmh E 8.0 mph12.9 kmh 30.15 in1021.0 mb 0.00 in0.0 mm 0.00 in0.0 mm 0.00 in0.0 mm
04:50 PM 89.5°F31.9°C 59.8°F15.4°C 37% 4.0 mph E6.4 kmh E 8.0 mph12.9 kmh 30.15 in1021.0 mb 0.00 in0.0 mm 0.00 in0.0 mm 0.00 in0.0 mm
04:55 PM 89.4°F31.9°C 59.7°F15.4°C 37% 4.0 mph ENE6.4 kmh ENE 8.0 mph12.9 kmh 30.15 in1021.0 mb 0.00 in0.0 mm 0.00 in0.0 mm 0.00 in0.0 mm
05:00 PM 89.4°F31.9°C 59.7°F15.4°C 37% 4.0 mph NE6.4 kmh NE 8.0 mph12.9 kmh 30.15 in1021.0 mb 0.00 in0.0 mm 0.00 in0.0 mm 0.00 in0.0 mm
05:05 PM 89.3°F31.8°C 58.8°F14.9°C 36% 3.0 mph ENE4.8 kmh ENE 8.0 mph12.9 kmh 30.15 in1021.0 mb 0.00 in0.0 mm 0.00 in0.0 mm 0.00 in0.0 mm
05:10 PM 89.2°F31.8°C 58.8°F14.9°C 36% 4.0 mph ENE6.4 kmh ENE 10.0 mph16.1 kmh 30.16 in1021.3 mb 0.00 in0.0 mm 0.00 in0.0 mm 0.00 in0.0 mm
05:15 PM 89.1°F31.7°C 59.4°F15.2°C 37% 3.0 mph E4.8 kmh E 10.0 mph16.1 kmh 30.16 in1021.3 mb 0.00 in0.0 mm 0.00 in0.0 mm 0.00 in0.0 mm
05:20 PM 89.0°F31.7°C 59.3°F15.2°C 37% 2.0 mph ESE3.2 kmh ESE 7.0 mph11.3 kmh 30.16 in1021.3 mb 0.00 in0.0 mm 0.00 in0.0 mm 0.00 in0.0 mm
05:25 PM 88.8°F31.6°C 59.2°F15.1°C 37% 3.0 mph SE4.8 kmh SE 8.0 mph12.9 kmh 30.15 in1021.0 mb 0.00 in0.0 mm 0.00 in0.0 mm 0.00 in0.0 mm
05:30 PM 88.6°F31.4°C 58.2°F14.6°C 36% 4.0 mph SE6.4 kmh SE 10.0 mph16.1 kmh 30.15 in1021.0 mb 0.00 in0.0 mm 0.00 in0.0 mm 0.00 in0.0 mm
05:35 PM 88.7°F31.5°C 59.8°F15.4°C 38% 3.0 mph ESE4.8 kmh ESE 10.0 mph16.1 kmh 30.15 in1021.0 mb 0.00 in0.0 mm 0.00 in0.0 mm 0.00 in0.0 mm
05:40 PM 88.4°F31.3°C 59.6°F15.3°C 38% 4.0 mph ESE6.4 kmh ESE 8.0 mph12.9 kmh 30.16 in1021.3 mb 0.00 in0.0 mm 0.00 in0.0 mm 0.00 in0.0 mm
05:45 PM 88.4°F31.3°C 58.8°F14.9°C 37% 4.0 mph SE6.4 kmh SE 8.0 mph12.9 kmh 30.16 in1021.3 mb 0.00 in0.0 mm 0.00 in0.0 mm 0.00 in0.0 mm
05:50 PM 88.3°F31.3°C 60.2°F15.7°C 39% 3.0 mph SE4.8 kmh SE 7.0 mph11.3 kmh 30.16 in1021.3 mb 0.00 in0.0 mm 0.00 in0.0 mm 0.00 in0.0 mm
05:55 PM 88.1°F31.2°C 59.3°F15.2°C 38% 3.0 mph ESE4.8 kmh ESE 7.0 mph11.3 kmh 30.16 in1021.3 mb 0.00 in0.0 mm 0.00 in0.0 mm 0.00 in0.0 mm
06:00 PM 88.1°F31.2°C 59.3°F15.2°C 38% 3.0 mph ESE4.8 kmh ESE 8.0 mph12.9 kmh 30.16 in1021.3 mb 0.00 in0.0 mm 0.00 in0.0 mm 0.00 in0.0 mm
06:05 PM 87.9°F31.1°C 59.1°F15.1°C 38% 4.0 mph ESE6.4 kmh ESE 8.0 mph12.9 kmh 30.16 in1021.3 mb 0.00 in0.0 mm 0.00 in0.0 mm 0.00 in0.0 mm
06:10 PM 87.3°F30.7°C 59.3°F15.2°C 39% 4.0 mph SE6.4 kmh SE 8.0 mph12.9 kmh 30.16 in1021.3 mb 0.00 in0.0 mm 0.00 in0.0 mm 0.00 in0.0 mm
06:15 PM 87.1°F30.6°C 59.1°F15.1°C 39% 3.0 mph SE4.8 kmh SE 7.0 mph11.3 kmh 30.16 in1021.3 mb 0.00 in0.0 mm 0.00 in0.0 mm 0.00 in0.0 mm
06:20 PM 87.2°F30.7°C 59.2°F15.1°C 39% 3.0 mph SSE4.8 kmh SSE 5.0 mph8.0 kmh 30.16 in1021.3 mb 0.00 in0.0 mm 0.00 in0.0 mm 0.00 in0.0 mm
06:25 PM 87.1°F30.6°C 59.8°F15.4°C 40% 2.0 mph SE3.2 kmh SE 4.0 mph6.4 kmh 30.16 in1021.3 mb 0.00 in0.0 mm 0.00 in0.0 mm 0.00 in0.0 mm
06:30 PM 87.0°F30.6°C 59.8°F15.4°C 40% 2.0 mph SE3.2 kmh SE 6.0 mph9.7 kmh 30.16 in1021.3 mb 0.00 in0.0 mm 0.00 in0.0 mm 0.00 in0.0 mm
06:35 PM 86.3°F30.2°C 59.1°F15.1°C 40% 3.0 mph SE4.8 kmh SE 6.0 mph9.7 kmh 30.17 in1021.7 mb 0.00 in0.0 mm 0.00 in0.0 mm 0.00 in0.0 mm
06:40 PM 86.0°F30.0°C 60.2°F15.7°C 42% 3.0 mph SE4.8 kmh SE 8.0 mph12.9 kmh 30.17 in1021.7 mb 0.00 in0.0 mm 0.00 in0.0 mm 0.00 in0.0 mm
06:45 PM 85.4°F29.7°C 59.7°F15.4°C 42% 2.0 mph ESE3.2 kmh ESE 8.0 mph12.9 kmh 30.17 in1021.7 mb 0.00 in0.0 mm 0.00 in0.0 mm 0.00 in0.0 mm
06:50 PM 84.9°F29.4°C 59.9°F15.5°C 43% 2.0 mph E3.2 kmh E 5.0 mph8.0 kmh 30.17 in1021.7 mb 0.00 in0.0 mm 0.00 in0.0 mm 0.00 in0.0 mm
06:55 PM 84.6°F29.2°C 60.3°F15.7°C 44% 2.0 mph E3.2 kmh E 5.0 mph8.0 kmh 30.17 in1021.7 mb 0.00 in0.0 mm 0.00 in0.0 mm 0.00 in0.0 mm
07:00 PM 84.2°F29.0°C 59.9°F15.5°C 44% 2.0 mph E3.2 kmh E 4.0 mph6.4 kmh 30.17 in1021.7 mb 0.00 in0.0 mm 0.00 in0.0 mm 0.00 in0.0 mm
07:05 PM 83.7°F28.7°C 60.1°F15.6°C 45% 2.0 mph ESE3.2 kmh ESE 6.0 mph9.7 kmh 30.17 in1021.7 mb 0.00 in0.0 mm 0.00 in0.0 mm 0.00 in0.0 mm
07:10 PM 83.0°F28.3°C 60.1°F15.6°C 46% 2.0 mph ESE3.2 kmh ESE 6.0 mph9.7 kmh 30.17 in1021.7 mb 0.00 in0.0 mm 0.00 in0.0 mm 0.00 in0.0 mm
07:15 PM 82.4°F28.0°C 60.7°F15.9°C 48% 2.0 mph ESE3.2 kmh ESE 4.0 mph6.4 kmh 30.18 in1022.0 mb 0.00 in0.0 mm 0.00 in0.0 mm 0.00 in0.0 mm
07:20 PM 81.9°F27.7°C 60.9°F16.1°C 49% 2.0 mph E3.2 kmh E 3.0 mph4.8 kmh 30.18 in1022.0 mb 0.00 in0.0 mm 0.00 in0.0 mm 0.00 in0.0 mm
07:25 PM 81.5°F27.5°C 61.1°F16.2°C 50% 1.0 mph E1.6 kmh E 3.0 mph4.8 kmh 30.17 in1021.7 mb 0.00 in0.0 mm 0.00 in0.0 mm 0.00 in0.0 mm
07:30 PM 81.0°F27.2°C 61.2°F16.2°C 51% 1.0 mph E1.6 kmh E 3.0 mph4.8 kmh 30.17 in1021.7 mb 0.00 in0.0 mm 0.00 in0.0 mm 0.00 in0.0 mm
07:35 PM 80.5°F26.9°C 60.7°F15.9°C 51% 1.0 mph E1.6 kmh E 3.0 mph4.8 kmh 30.18 in1022.0 mb 0.00 in0.0 mm 0.00 in0.0 mm 0.00 in0.0 mm
07:40 PM 80.2°F26.8°C 61.0°F16.1°C 52% 1.0 mph ESE1.6 kmh ESE 3.0 mph4.8 kmh 30.18 in1022.0 mb 0.00 in0.0 mm 0.00 in0.0 mm 0.00 in0.0 mm
07:45 PM 79.8°F26.6°C 61.1°F16.2°C 53% 1.0 mph ESE1.6 kmh ESE 3.0 mph4.8 kmh 30.18 in1022.0 mb 0.00 in0.0 mm 0.00 in0.0 mm 0.00 in0.0 mm
07:50 PM 79.4°F26.3°C 61.3°F16.3°C 54% 1.0 mph ESE1.6 kmh ESE 5.0 mph8.0 kmh 30.18 in1022.0 mb 0.00 in0.0 mm 0.00 in0.0 mm 0.00 in0.0 mm
07:55 PM 79.1°F26.2°C 62.6°F17.0°C 57% 3.0 mph ESE4.8 kmh ESE 11.0 mph17.7 kmh 30.18 in1022.0 mb 0.00 in0.0 mm 0.00 in0.0 mm 0.00 in0.0 mm
08:00 PM 78.9°F26.1°C 63.4°F17.4°C 59% 4.0 mph ESE6.4 kmh ESE 11.0 mph17.7 kmh 30.19 in1022.4 mb 0.00 in0.0 mm 0.00 in0.0 mm 0.00 in0.0 mm
08:05 PM 78.8°F26.0°C 64.2°F17.9°C 61% 4.0 mph ESE6.4 kmh ESE 10.0 mph16.1 kmh 30.19 in1022.4 mb 0.00 in0.0 mm 0.00 in0.0 mm 0.00 in0.0 mm
08:10 PM 78.5°F25.8°C 64.4°F18.0°C 62% 5.0 mph ESE8.0 kmh ESE 13.0 mph20.9 kmh 30.19 in1022.4 mb 0.00 in0.0 mm 0.00 in0.0 mm 0.00 in0.0 mm
08:15 PM 78.2°F25.7°C 64.6°F18.1°C 63% 6.0 mph E9.7 kmh E 13.0 mph20.9 kmh 30.19 in1022.4 mb 0.00 in0.0 mm 0.00 in0.0 mm 0.00 in0.0 mm
08:20 PM 78.0°F25.6°C 64.8°F18.2°C 64% 6.0 mph E9.7 kmh E 13.0 mph20.9 kmh 30.20 in1022.7 mb 0.00 in0.0 mm 0.00 in0.0 mm 0.00 in0.0 mm
08:25 PM 77.6°F25.3°C 64.5°F18.1°C 64% 6.0 mph E9.7 kmh E 14.0 mph22.5 kmh 30.20 in1022.7 mb 0.00 in0.0 mm 0.00 in0.0 mm 0.00 in0.0 mm
08:30 PM 77.4°F25.2°C 64.7°F18.2°C 65% 6.0 mph E9.7 kmh E 14.0 mph22.5 kmh 30.20 in1022.7 mb 0.00 in0.0 mm 0.00 in0.0 mm 0.00 in0.0 mm
08:35 PM 77.1°F25.1°C 64.9°F18.3°C 66% 5.0 mph E8.0 kmh E 12.0 mph19.3 kmh 30.20 in1022.7 mb 0.00 in0.0 mm 0.00 in0.0 mm 0.00 in0.0 mm
08:40 PM 76.9°F24.9°C 64.7°F18.2°C 66% 4.0 mph ESE6.4 kmh ESE 15.0 mph24.1 kmh 30.21 in1023.0 mb 0.00 in0.0 mm 0.00 in0.0 mm 0.00 in0.0 mm
08:45 PM 76.6°F24.8°C 64.8°F18.2°C 67% 5.0 mph ESE8.0 kmh ESE 15.0 mph24.1 kmh 30.21 in1023.0 mb 0.00 in0.0 mm 0.00 in0.0 mm 0.00 in0.0 mm
08:50 PM 76.4°F24.7°C 64.6°F18.1°C 67% 4.0 mph E6.4 kmh E 13.0 mph20.9 kmh 30.21 in1023.0 mb 0.00 in0.0 mm 0.00 in0.0 mm 0.00 in0.0 mm
08:55 PM 76.1°F24.5°C 64.8°F18.2°C 68% 4.0 mph E6.4 kmh E 10.0 mph16.1 kmh 30.22 in1023.4 mb 0.00 in0.0 mm 0.00 in0.0 mm 0.00 in0.0 mm
09:00 PM 75.9°F24.4°C 64.6°F18.1°C 68% 4.0 mph E6.4 kmh E 14.0 mph22.5 kmh 30.22 in1023.4 mb 0.00 in0.0 mm 0.00 in0.0 mm 0.00 in0.0 mm
09:05 PM 75.6°F24.2°C 64.3°F17.9°C 68% 4.0 mph E6.4 kmh E 14.0 mph22.5 kmh 30.22 in1023.4 mb 0.00 in0.0 mm 0.00 in0.0 mm 0.00 in0.0 mm
09:10 PM 75.3°F24.1°C 64.0°F17.8°C 68% 4.0 mph E6.4 kmh E 10.0 mph16.1 kmh 30.22 in1023.4 mb 0.00 in0.0 mm 0.00 in0.0 mm 0.00 in0.0 mm
09:15 PM 75.0°F23.9°C 63.7°F17.6°C 68% 4.0 mph E6.4 kmh E 10.0 mph16.1 kmh 30.22 in1023.4 mb 0.00 in0.0 mm 0.00 in0.0 mm 0.00 in0.0 mm
09:20 PM 74.8°F23.8°C 63.5°F17.5°C 68% 3.0 mph E4.8 kmh E 9.0 mph14.5 kmh 30.22 in1023.4 mb 0.00 in0.0 mm 0.00 in0.0 mm 0.00 in0.0 mm
09:25 PM 74.6°F23.7°C 63.3°F17.4°C 68% 4.0 mph E6.4 kmh E 13.0 mph20.9 kmh 30.22 in1023.4 mb 0.00 in0.0 mm 0.00 in0.0 mm 0.00 in0.0 mm
09:30 PM 74.4°F23.6°C 62.7°F17.1°C 67% 5.0 mph E8.0 kmh E 13.0 mph20.9 kmh 30.22 in1023.4 mb 0.00 in0.0 mm 0.00 in0.0 mm 0.00 in0.0 mm
09:35 PM 74.3°F23.5°C 62.2°F16.8°C 66% 5.0 mph E8.0 kmh E 9.0 mph14.5 kmh 30.22 in1023.4 mb 0.00 in0.0 mm 0.00 in0.0 mm 0.00 in0.0 mm
09:40 PM 74.3°F23.5°C 61.3°F16.3°C 64% 4.0 mph E6.4 kmh E 9.0 mph14.5 kmh 30.23 in1023.7 mb 0.00 in0.0 mm 0.00 in0.0 mm 0.00 in0.0 mm
09:45 PM 74.2°F23.4°C 61.2°F16.2°C 64% 4.0 mph E6.4 kmh E 9.0 mph14.5 kmh 30.23 in1023.7 mb 0.00 in0.0 mm 0.00 in0.0 mm 0.00 in0.0 mm
09:50 PM 74.1°F23.4°C 60.7°F15.9°C 63% 4.0 mph E6.4 kmh E 8.0 mph12.9 kmh 30.23 in1023.7 mb 0.00 in0.0 mm 0.00 in0.0 mm 0.00 in0.0 mm
09:55 PM 74.0°F23.3°C 59.2°F15.1°C 60% 4.0 mph E6.4 kmh E 9.0 mph14.5 kmh 30.23 in1023.7 mb 0.00 in0.0 mm 0.00 in0.0 mm 0.00 in0.0 mm
10:00 PM 73.9°F23.3°C 58.2°F14.6°C 58% 4.0 mph E6.4 kmh E 10.0 mph16.1 kmh 30.23 in1023.7 mb 0.00 in0.0 mm 0.00 in0.0 mm 0.00 in0.0 mm
10:05 PM 73.7°F23.2°C 57.0°F13.9°C 56% 3.0 mph E4.8 kmh E 10.0 mph16.1 kmh 30.23 in1023.7 mb 0.00 in0.0 mm 0.00 in0.0 mm 0.00 in0.0 mm
10:10 PM 73.4°F23.0°C 54.7°F12.6°C 52% 3.0 mph E4.8 kmh E 11.0 mph17.7 kmh 30.24 in1024.0 mb 0.00 in0.0 mm 0.00 in0.0 mm 0.00 in0.0 mm
10:15 PM 73.2°F22.9°C 52.9°F11.6°C 49% 3.0 mph E4.8 kmh E 11.0 mph17.7 kmh 30.24 in1024.0 mb 0.00 in0.0 mm 0.00 in0.0 mm 0.00 in0.0 mm
10:20 PM 73.0°F22.8°C 51.0°F10.6°C 46% 3.0 mph E4.8 kmh E 9.0 mph14.5 kmh 30.24 in1024.0 mb 0.00 in0.0 mm 0.00 in0.0 mm 0.00 in0.0 mm
10:25 PM 72.8°F22.7°C 49.0°F9.4°C 43% 3.0 mph E4.8 kmh E 8.0 mph12.9 kmh 30.24 in1024.0 mb 0.00 in0.0 mm 0.00 in0.0 mm 0.00 in0.0 mm
10:30 PM 72.7°F22.6°C 45.6°F7.6°C 38% 4.0 mph E6.4 kmh E 8.0 mph12.9 kmh 30.24 in1024.0 mb 0.00 in0.0 mm 0.00 in0.0 mm 0.00 in0.0 mm
10:35 PM 72.5°F22.5°C 41.7°F5.4°C 33% 4.0 mph E6.4 kmh E 10.0 mph16.1 kmh 30.24 in1024.0 mb 0.00 in0.0 mm 0.00 in0.0 mm 0.00 in0.0 mm
10:40 PM 72.4°F22.4°C 39.2°F4.0°C 30% 4.0 mph E6.4 kmh E 10.0 mph16.1 kmh 30.24 in1024.0 mb 0.00 in0.0 mm 0.00 in0.0 mm 0.00 in0.0 mm
10:45 PM 72.5°F22.5°C 37.5°F3.1°C 28% 3.0 mph E4.8 kmh E 11.0 mph17.7 kmh 30.24 in1024.0 mb 0.00 in0.0 mm 0.00 in0.0 mm 0.00 in0.0 mm
10:50 PM 72.5°F22.5°C 36.6°F2.6°C 27% 3.0 mph E4.8 kmh E 11.0 mph17.7 kmh 30.24 in1024.0 mb 0.00 in0.0 mm 0.00 in0.0 mm 0.00 in0.0 mm
10:55 PM 72.4°F22.4°C 34.6°F1.4°C 25% 3.0 mph E4.8 kmh E 10.0 mph16.1 kmh 30.24 in1024.0 mb 0.00 in0.0 mm 0.00 in0.0 mm 0.00 in0.0 mm
11:00 PM 72.4°F22.4°C 33.5°F0.8°C 24% 4.0 mph E6.4 kmh E 10.0 mph16.1 kmh 30.24 in1024.0 mb 0.00 in0.0 mm 0.00 in0.0 mm 0.00 in0.0 mm
11:05 PM 72.3°F22.4°C 32.4°F0.2°C 23% 4.0 mph E6.4 kmh E 10.0 mph16.1 kmh 30.24 in1024.0 mb 0.00 in0.0 mm 0.00 in0.0 mm 0.00 in0.0 mm
11:10 PM 72.3°F22.4°C 29.0°F-1.7°C 20% 3.0 mph E4.8 kmh E 8.0 mph12.9 kmh 30.24 in1024.0 mb 0.00 in0.0 mm 0.00 in0.0 mm 0.00 in0.0 mm
11:15 PM 72.2°F22.3°C 26.3°F-3.2°C 18% 4.0 mph E6.4 kmh E 9.0 mph14.5 kmh 30.24 in1024.0 mb 0.00 in0.0 mm 0.00 in0.0 mm 0.00 in0.0 mm
11:20 PM 72.1°F22.3°C 23.4°F-4.8°C 16% 4.0 mph E6.4 kmh E 9.0 mph14.5 kmh 30.24 in1024.0 mb 0.00 in0.0 mm 0.00 in0.0 mm 0.00 in0.0 mm
11:25 PM 71.9°F22.2°C 21.7°F-5.7°C 15% 3.0 mph E4.8 kmh E 10.0 mph16.1 kmh 30.24 in1024.0 mb 0.00 in0.0 mm 0.00 in0.0 mm 0.00 in0.0 mm
11:30 PM 71.8°F22.1°C 18.3°F-7.6°C 13% 4.0 mph E6.4 kmh E 10.0 mph16.1 kmh 30.24 in1024.0 mb 0.00 in0.0 mm 0.00 in0.0 mm 0.00 in0.0 mm
11:35 PM 71.6°F22.0°C 12.1°F-11.1°C 10% 4.0 mph E6.4 kmh E 9.0 mph14.5 kmh 30.24 in1024.0 mb 0.00 in0.0 mm 0.00 in0.0 mm 0.00 in0.0 mm
11:40 PM 71.5°F21.9°C 4.1°F-15.5°C 7% 3.0 mph E4.8 kmh E 10.0 mph16.1 kmh 30.24 in1024.0 mb 0.00 in0.0 mm 0.00 in0.0 mm 0.00 in0.0 mm
11:45 PM 71.3°F21.8°C -13.7°F-25.4°C 3% 4.0 mph E6.4 kmh E 10.0 mph16.1 kmh 30.24 in1024.0 mb 0.00 in0.0 mm 0.00 in0.0 mm 0.00 in0.0 mm
11:50 PM 71.3°F21.8°C -34.4°F-36.9°C 0% 4.0 mph E6.4 kmh E 9.0 mph14.5 kmh 30.24 in1024.0 mb 0.00 in0.0 mm 0.00 in0.0 mm 0.00 in0.0 mm
11:55 PM 71.3°F21.8°C -34.4°F-36.9°C 0% 3.0 mph E4.8 kmh E 9.0 mph14.5 kmh 30.24 in1024.0 mb 0.00 in0.0 mm 0.00 in0.0 mm 0.00 in0.0 mm